METAR KZZZ 131241Z 00000KT CLR M01/M01 A3043 RMK SLP302 T10001006 10022 21006 51004 400671039